createdAt,value
2022-12-12T00:00:37.159Z,-0.60
2022-12-12T00:03:25.150Z,-0.60
2022-12-12T00:06:13.483Z,-0.60
2022-12-12T00:09:03.541Z,-0.70
2022-12-12T00:11:51.668Z,-0.70
2022-12-12T00:14:39.769Z,-0.60
2022-12-12T00:17:28.137Z,-0.60
2022-12-12T00:20:17.779Z,-0.50
2022-12-12T00:23:06.059Z,-0.50
2022-12-12T00:26:01.247Z,-0.50
2022-12-12T00:28:49.970Z,-0.60
2022-12-12T00:31:40.534Z,-0.80
2022-12-12T00:34:28.736Z,-0.70
2022-12-12T00:37:16.871Z,-0.70
2022-12-12T00:40:06.561Z,-0.60
2022-12-12T00:42:54.474Z,-0.60
2022-12-12T00:45:45.496Z,-0.60
2022-12-12T00:48:33.545Z,-0.50
2022-12-12T00:51:23.628Z,-0.40
2022-12-12T00:54:12.696Z,-0.20
2022-12-12T00:57:00.601Z,-0.20
2022-12-12T00:59:48.448Z,-0.10
2022-12-12T01:02:36.563Z,-0.20
2022-12-12T01:05:26.067Z,-0.20
2022-12-12T01:08:14.159Z,-0.30
2022-12-12T01:11:02.112Z,-0.20
2022-12-12T01:13:52.415Z,0.00
2022-12-12T01:16:42.795Z,-0.10
2022-12-12T01:19:31.947Z,-0.30
2022-12-12T01:22:20.244Z,-0.30
2022-12-12T01:25:10.954Z,-0.20
2022-12-12T01:28:00.135Z,-0.20
2022-12-12T01:30:48.296Z,-0.30
2022-12-12T01:33:36.780Z,-0.30
2022-12-12T01:36:27.301Z,-0.30
2022-12-12T01:39:15.530Z,-0.40
2022-12-12T01:42:03.700Z,-0.40
2022-12-12T01:44:53.604Z,-0.40
2022-12-12T01:47:41.480Z,-0.40
2022-12-12T01:50:29.403Z,-0.30
2022-12-12T01:53:19.556Z,-0.20
2022-12-12T01:56:12.521Z,-0.20
2022-12-12T01:59:04.041Z,-0.20
2022-12-12T02:01:53.508Z,-0.10
2022-12-12T02:04:42.686Z,0.00
2022-12-12T02:07:30.622Z,-0.20
2022-12-12T02:10:18.796Z,-0.10
2022-12-12T02:13:12.745Z,0.30
2022-12-12T02:16:26.163Z,0.70
2022-12-12T02:19:57.100Z,1.00
2022-12-12T02:23:10.260Z,1.20
2022-12-12T02:26:47.636Z,1.30
2022-12-12T02:29:55.756Z,1.20
2022-12-12T02:33:14.662Z,1.30
2022-12-12T02:36:52.221Z,1.40
2022-12-12T02:40:11.763Z,1.20
2022-12-12T02:43:25.530Z,1.20
2022-12-12T02:46:32.725Z,1.30
2022-12-12T02:49:33.185Z,1.30
2022-12-12T02:52:22.359Z,1.50
2022-12-12T02:55:11.145Z,1.60
2022-12-12T02:57:59.828Z,1.60
2022-12-12T03:01:29.407Z,1.60
2022-12-12T03:04:53.075Z,1.50
2022-12-12T03:08:11.859Z,1.30
2022-12-12T03:11:15.575Z,1.30
2022-12-12T03:14:14.000Z,1.40
2022-12-12T03:17:34.315Z,1.40
2022-12-12T03:20:49.777Z,1.30
2022-12-12T03:23:43.297Z,1.40
2022-12-12T03:26:40.315Z,1.30
2022-12-12T03:29:41.196Z,1.30
2022-12-12T03:32:38.350Z,1.30
2022-12-12T03:35:50.971Z,1.30
2022-12-12T03:38:46.386Z,1.10
2022-12-12T03:41:44.085Z,1.00
2022-12-12T03:45:03.636Z,1.10
2022-12-12T03:47:56.407Z,1.00
2022-12-12T03:50:50.935Z,0.70
2022-12-12T03:58:23.114Z,0.80
2022-12-12T04:01:13.146Z,0.90
2022-12-12T04:04:18.773Z,0.90
2022-12-12T04:07:23.486Z,0.80
2022-12-12T04:10:31.085Z,0.80
2022-12-12T04:13:32.568Z,0.70
2022-12-12T04:16:29.872Z,0.60
2022-12-12T04:19:53.888Z,0.70
2022-12-12T04:23:15.454Z,0.90
2022-12-12T04:26:39.631Z,1.00
2022-12-12T04:30:00.680Z,1.00
2022-12-12T04:32:57.638Z,1.00
2022-12-12T04:35:50.090Z,1.00
2022-12-12T04:38:38.778Z,0.90
2022-12-12T04:41:28.831Z,0.90
2022-12-12T04:44:19.994Z,0.70
2022-12-12T04:47:10.489Z,0.70
2022-12-12T04:50:01.482Z,0.70
2022-12-12T04:52:51.016Z,0.80
2022-12-12T04:55:44.731Z,0.80
2022-12-12T04:58:32.630Z,0.80
2022-12-12T05:01:57.181Z,0.50
2022-12-12T05:04:59.123Z,0.40
2022-12-12T05:08:00.841Z,0.50
2022-12-12T05:10:55.827Z,0.50
2022-12-12T05:13:44.989Z,0.60
2022-12-12T05:16:40.160Z,0.50
2022-12-12T05:19:28.066Z,0.40
2022-12-12T05:22:16.012Z,0.40
2022-12-12T05:25:04.879Z,0.20
2022-12-12T05:27:52.727Z,0.30
2022-12-12T05:30:40.730Z,0.40
2022-12-12T05:33:28.613Z,0.50
2022-12-12T05:36:17.525Z,0.70
2022-12-12T05:39:05.548Z,0.80
2022-12-12T05:41:53.373Z,0.80
2022-12-12T05:44:41.281Z,0.90
2022-12-12T05:47:32.227Z,1.10
2022-12-12T05:50:20.081Z,1.10
2022-12-12T05:53:08.225Z,1.10
2022-12-12T05:55:56.439Z,1.10
2022-12-12T05:58:44.375Z,1.20
2022-12-12T06:01:32.624Z,1.10
2022-12-12T06:04:20.610Z,1.20
2022-12-12T06:07:09.322Z,1.10
2022-12-12T06:09:57.274Z,1.10
2022-12-12T06:12:47.446Z,0.90
2022-12-12T06:15:40.433Z,0.90
2022-12-12T06:18:28.259Z,0.80
2022-12-12T06:21:16.277Z,0.50
2022-12-12T06:24:06.848Z,0.60
2022-12-12T06:26:54.707Z,0.60
2022-12-12T06:29:42.655Z,0.60
2022-12-12T06:32:30.684Z,0.80
2022-12-12T06:35:18.974Z,0.90
2022-12-12T06:38:19.579Z,0.70
2022-12-12T06:41:10.399Z,0.80
2022-12-12T06:44:00.234Z,0.90
2022-12-12T06:46:50.803Z,0.90
2022-12-12T06:50:11.833Z,0.90
2022-12-12T06:52:59.961Z,1.00
2022-12-12T06:55:48.274Z,1.30
2022-12-12T06:58:44.744Z,1.00
2022-12-12T07:01:33.535Z,0.70
2022-12-12T07:04:28.946Z,0.70
2022-12-12T07:07:17.418Z,0.80
2022-12-12T07:10:06.769Z,0.80
2022-12-12T07:13:05.112Z,0.90
2022-12-12T07:15:59.274Z,0.70
2022-12-12T07:18:55.851Z,0.80
2022-12-12T07:21:44.124Z,0.80
2022-12-12T07:24:35.060Z,0.60
2022-12-12T07:27:23.219Z,0.50
2022-12-12T07:33:39.537Z,0.80
2022-12-12T07:36:29.157Z,1.00
2022-12-12T07:39:20.909Z,1.20
2022-12-12T07:42:09.353Z,1.30
2022-12-12T07:44:57.626Z,1.30
2022-12-12T07:47:48.609Z,1.20
2022-12-12T07:50:39.829Z,1.10
2022-12-12T07:53:31.250Z,1.20
2022-12-12T07:56:23.613Z,1.20
2022-12-12T07:59:12.767Z,1.20
2022-12-12T08:02:04.430Z,1.40
2022-12-12T08:04:59.466Z,1.50
2022-12-12T08:07:48.223Z,1.60
2022-12-12T08:10:42.715Z,1.70
2022-12-12T08:13:39.310Z,1.70
2022-12-12T08:16:32.331Z,1.70
2022-12-12T08:19:26.319Z,1.30
2022-12-12T08:22:18.578Z,1.40
2022-12-12T08:25:12.381Z,1.30
2022-12-12T08:28:07.200Z,1.10
2022-12-12T08:34:16.408Z,1.50
2022-12-12T08:37:39.617Z,1.60
2022-12-12T08:40:49.322Z,1.60
2022-12-12T08:43:41.253Z,1.70
2022-12-12T08:46:34.713Z,1.70
2022-12-12T08:49:37.398Z,1.70
2022-12-12T08:52:45.327Z,1.50
2022-12-12T08:55:49.940Z,1.40
2022-12-12T09:02:10.167Z,0.80
2022-12-12T09:08:31.207Z,0.60
2022-12-12T09:11:25.061Z,0.90
2022-12-12T09:14:13.532Z,1.40
2022-12-12T09:17:02.409Z,1.70
2022-12-12T09:19:50.933Z,1.90
2022-12-12T09:22:39.485Z,2.00
2022-12-12T09:26:54.847Z,1.50
2022-12-12T09:29:45.527Z,1.90
2022-12-12T09:33:12.957Z,2.40
2022-12-12T09:36:09.244Z,2.10
2022-12-12T09:39:00.118Z,2.00
2022-12-12T09:41:51.099Z,1.80
2022-12-12T09:44:40.779Z,2.10
2022-12-12T09:47:47.455Z,2.30
2022-12-12T09:51:09.438Z,2.30
2022-12-12T09:54:11.072Z,2.40
2022-12-12T09:57:25.224Z,2.60
2022-12-12T10:04:13.783Z,2.70
2022-12-12T10:07:24.858Z,2.70
2022-12-12T10:10:58.799Z,2.90
2022-12-12T10:13:55.679Z,3.00
2022-12-12T10:16:53.957Z,2.90
2022-12-12T10:19:56.565Z,3.00
2022-12-12T10:22:52.711Z,3.00
2022-12-12T10:26:02.897Z,3.20
2022-12-12T10:29:10.706Z,3.70
2022-12-12T10:32:42.737Z,4.10
2022-12-12T10:35:53.787Z,4.60
2022-12-12T10:39:12.852Z,4.70
2022-12-12T10:42:37.682Z,4.10
2022-12-12T10:45:52.928Z,4.40
2022-12-12T10:48:44.480Z,4.60
2022-12-12T10:51:38.741Z,4.40
2022-12-12T10:54:29.052Z,4.30
2022-12-12T10:57:45.851Z,4.70
2022-12-12T11:00:39.818Z,4.70
2022-12-12T11:03:35.838Z,3.80
2022-12-12T11:06:43.034Z,3.70
2022-12-12T11:09:32.302Z,3.40
2022-12-12T11:12:21.138Z,3.40
2022-12-12T11:15:19.972Z,3.40
2022-12-12T11:18:15.922Z,3.60
2022-12-12T11:21:10.568Z,3.50
2022-12-12T11:23:59.428Z,3.00
2022-12-12T11:27:05.956Z,3.40
2022-12-12T11:30:22.568Z,3.00
2022-12-12T11:33:31.410Z,3.00
2022-12-12T11:36:37.319Z,3.00
2022-12-12T11:39:42.172Z,2.80
2022-12-12T11:50:10.800Z,2.50
2022-12-12T11:53:05.414Z,2.40
2022-12-12T11:56:20.557Z,3.60
2022-12-12T11:59:11.790Z,4.40
2022-12-12T12:02:55.443Z,5.10
2022-12-12T12:06:01.786Z,4.80
2022-12-12T12:09:20.849Z,5.60
2022-12-12T12:12:23.822Z,4.80
2022-12-12T12:15:41.843Z,6.00
2022-12-12T12:18:48.918Z,7.80
2022-12-12T12:21:44.803Z,7.60
2022-12-12T12:25:18.807Z,6.60
2022-12-12T12:28:28.948Z,7.30
2022-12-12T12:31:57.799Z,8.30
2022-12-12T12:35:31.494Z,9.40
2022-12-12T12:38:49.966Z,9.50
2022-12-12T12:42:23.982Z,8.30
2022-12-12T12:45:53.340Z,7.60
2022-12-12T12:48:52.920Z,7.80
2022-12-12T12:51:53.227Z,7.20
2022-12-12T12:54:49.370Z,6.10
2022-12-12T12:57:44.580Z,3.60
2022-12-12T13:00:35.883Z,2.40
2022-12-12T13:03:36.127Z,2.00
2022-12-12T13:06:47.332Z,1.70
2022-12-12T13:09:42.434Z,1.50
2022-12-12T13:12:43.419Z,1.30
2022-12-12T13:15:39.476Z,1.40
2022-12-12T13:18:45.062Z,1.50
2022-12-12T13:21:58.121Z,1.40
2022-12-12T13:25:12.718Z,1.40
2022-12-12T13:28:19.643Z,2.70
2022-12-12T13:31:40.221Z,3.40
2022-12-12T13:37:20.954Z,4.90
2022-12-12T13:40:25.215Z,4.40
2022-12-12T13:43:43.004Z,4.40
2022-12-12T13:46:49.465Z,3.70
2022-12-12T13:50:10.262Z,3.80
2022-12-12T13:53:28.787Z,3.40
2022-12-12T13:56:47.824Z,3.00
2022-12-12T14:00:04.304Z,2.80
2022-12-12T14:03:17.495Z,2.30
2022-12-12T14:06:14.376Z,1.60
2022-12-12T14:09:04.525Z,1.40
2022-12-12T14:12:08.824Z,1.10
2022-12-12T14:15:03.540Z,0.90
2022-12-12T14:18:16.893Z,0.80
2022-12-12T14:21:11.623Z,0.40
2022-12-12T14:24:35.295Z,0.50
2022-12-12T14:27:51.968Z,0.40
2022-12-12T14:31:12.332Z,0.50
2022-12-12T14:34:08.623Z,0.30
2022-12-12T14:37:44.725Z,0.40
2022-12-12T14:40:44.863Z,0.60
2022-12-12T14:43:45.505Z,0.70
2022-12-12T14:46:45.087Z,0.70
2022-12-12T14:49:39.353Z,0.70
2022-12-12T14:52:32.402Z,0.60
2022-12-12T14:55:31.647Z,0.70
2022-12-12T14:58:28.720Z,0.80
2022-12-12T15:01:52.788Z,0.70
2022-12-12T15:04:47.814Z,0.80
2022-12-12T15:07:39.240Z,0.80
2022-12-12T15:10:30.925Z,0.80
2022-12-12T15:13:26.828Z,0.90
2022-12-12T15:16:17.281Z,1.10
2022-12-12T15:19:06.471Z,1.20
2022-12-12T15:22:03.502Z,1.30
2022-12-12T15:24:56.101Z,1.40
2022-12-12T15:27:55.734Z,1.40
2022-12-12T15:30:49.841Z,1.30
2022-12-12T15:33:42.931Z,1.30
2022-12-12T15:40:33.351Z,0.80
2022-12-12T15:43:30.779Z,0.60
2022-12-12T15:51:33.688Z,0.30
2022-12-12T15:54:57.661Z,0.30
2022-12-12T15:58:01.853Z,0.30
2022-12-12T16:01:26.774Z,0.20
2022-12-12T16:04:32.756Z,0.10
2022-12-12T16:07:36.807Z,-0.10
2022-12-12T16:10:37.779Z,-0.30
2022-12-12T16:13:40.352Z,-0.30
2022-12-12T16:16:49.963Z,-0.20
2022-12-12T16:20:16.484Z,-0.40
2022-12-12T16:27:13.874Z,-0.30
2022-12-12T16:30:07.102Z,-0.40
2022-12-12T16:45:08.665Z,-0.60
2022-12-12T16:47:38.715Z,-0.60
2022-12-12T16:55:25.904Z,-0.80
2022-12-12T16:58:46.907Z,-0.70
2022-12-12T17:09:54.500Z,-0.90
2022-12-12T17:14:13.727Z,-0.90
2022-12-12T17:18:34.255Z,-0.70
2022-12-12T17:21:54.291Z,-0.70
2022-12-12T17:38:46.899Z,-1.20
2022-12-12T17:44:58.709Z,-1.10
2022-12-12T17:49:40.111Z,-1.40
2022-12-12T17:52:32.357Z,-1.50
2022-12-12T17:56:01.082Z,-1.40
2022-12-12T18:04:31.297Z,-1.50
2022-12-12T18:10:57.190Z,-1.90
2022-12-12T18:20:19.945Z,-2.20
2022-12-12T18:40:13.040Z,-2.10
2022-12-12T18:52:35.388Z,-2.10
2022-12-12T18:55:49.307Z,-2.20
2022-12-12T18:58:58.183Z,-2.20
2022-12-12T19:02:54.452Z,-2.20
2022-12-12T19:06:49.815Z,-2.40
2022-12-12T19:14:14.054Z,-2.30
2022-12-12T19:17:27.393Z,-2.30
2022-12-12T19:20:57.941Z,-2.40
2022-12-12T19:23:55.915Z,-2.40
2022-12-12T19:27:43.895Z,-2.50
2022-12-12T19:38:22.734Z,-2.80
2022-12-12T19:41:44.750Z,-2.80
2022-12-12T19:48:37.647Z,-3.10
2022-12-12T19:55:13.974Z,-3.10
2022-12-12T20:13:44.957Z,-3.30
2022-12-12T20:16:36.217Z,-3.20
2022-12-12T20:19:31.265Z,-3.30
2022-12-12T20:22:31.154Z,-3.30
2022-12-12T20:25:24.848Z,-3.30
2022-12-12T20:32:39.783Z,-3.40
2022-12-12T20:36:35.577Z,-3.20
2022-12-12T20:39:40.179Z,-3.10
2022-12-12T20:42:47.310Z,-3.30
2022-12-12T20:45:41.407Z,-3.30
2022-12-12T20:48:46.307Z,-3.40
2022-12-12T20:51:57.017Z,-3.50
2022-12-12T20:54:55.976Z,-3.40
2022-12-12T20:57:53.114Z,-3.40
2022-12-12T21:00:55.829Z,-3.40
2022-12-12T21:03:51.748Z,-3.30
2022-12-12T21:07:06.551Z,-3.10
2022-12-12T21:10:02.303Z,-3.10
2022-12-12T21:13:05.463Z,-3.20
2022-12-12T21:16:12.172Z,-3.30
2022-12-12T21:22:31.133Z,-3.10
2022-12-12T21:25:36.413Z,-3.30
2022-12-12T21:29:06.322Z,-3.60
2022-12-12T21:44:16.357Z,-3.60
2022-12-12T21:47:10.912Z,-3.40
2022-12-12T21:50:13.335Z,-3.50
2022-12-12T21:53:20.192Z,-3.70
2022-12-12T21:56:18.958Z,-3.60
2022-12-12T21:59:21.344Z,-3.60
2022-12-12T22:02:19.100Z,-3.70
2022-12-12T22:05:12.933Z,-3.80
2022-12-12T22:08:03.291Z,-3.90
2022-12-12T22:10:56.373Z,-4.10
2022-12-12T22:13:47.233Z,-4.10
2022-12-12T22:16:35.935Z,-3.90
2022-12-12T22:19:31.523Z,-3.90
2022-12-12T22:22:19.853Z,-3.90
2022-12-12T22:25:16.343Z,-4.10
2022-12-12T22:28:07.335Z,-4.30
2022-12-12T22:30:56.027Z,-4.40
2022-12-12T22:33:45.535Z,-4.50
2022-12-12T22:36:40.132Z,-4.50
2022-12-12T22:39:35.519Z,-4.60
2022-12-12T22:42:36.718Z,-4.60
2022-12-12T22:45:29.655Z,-4.70
2022-12-12T22:48:20.464Z,-4.70
2022-12-12T22:51:30.355Z,-4.70
2022-12-12T22:54:24.189Z,-4.60
2022-12-12T22:57:12.592Z,-4.50
2022-12-12T23:00:06.547Z,-4.50
2022-12-12T23:03:11.784Z,-4.20
2022-12-12T23:06:22.546Z,-4.30
2022-12-12T23:09:24.640Z,-4.50
2022-12-12T23:12:45.142Z,-4.60
2022-12-12T23:15:42.261Z,-4.80
2022-12-12T23:18:35.707Z,-4.90
2022-12-12T23:21:38.415Z,-4.90
2022-12-12T23:24:33.131Z,-4.70
2022-12-12T23:27:25.957Z,-4.60
2022-12-12T23:30:20.744Z,-4.80
2022-12-12T23:33:11.649Z,-4.90
2022-12-12T23:36:06.275Z,-4.90
2022-12-12T23:39:01.517Z,-4.70
2022-12-12T23:41:52.806Z,-4.70
2022-12-12T23:44:41.329Z,-4.80
2022-12-12T23:47:35.185Z,-4.90
2022-12-12T23:50:27.663Z,-5.00
2022-12-12T23:53:26.454Z,-5.10
2022-12-12T23:56:27.501Z,-5.00
2022-12-12T23:59:20.348Z,-4.90
